Terminal Aerodrome Forecast
Issued by NWS Pendleton, OR

Home | Current Version | Previous Version | Text Only | Print | Product List | Glossary On
Versions: 1 2 3 4 5 6 7 8 9 10 11 12 13 14 15
000
FTUS46 KPDT 010540
TAFPDT
TAF
KPDT 010540Z 0106/0206 27010KT P6SM SCT200 BKN250
     FM011200 19006KT P6SM SCT250
     FM011600 24008KT P6SM FEW250
     FM011800 30012KT P6SM SKC
     FM020300 27012KT P6SM SCT200=

USA.gov is the U.S. government's official web portal to all federal, state and local government web resources and services.